sensor_id;sensor_type;location;lat;lon;timestamp;P1;durP1;ratioP1;P2;durP2;ratioP2
14167;SDS011;7163;50.626;12.922;2023-11-19T00:03:26;2.65;;;2.10;;
14167;SDS011;7163;50.626;12.922;2023-11-19T00:08:28;2.13;;;2.03;;
14167;SDS011;7163;50.626;12.922;2023-11-19T00:13:29;1.90;;;1.80;;
14167;SDS011;7163;50.626;12.922;2023-11-19T00:18:30;1.85;;;1.75;;
14167;SDS011;7163;50.626;12.922;2023-11-19T00:23:30;1.70;;;1.60;;
14167;SDS011;7163;50.626;12.922;2023-11-19T00:28:30;1.80;;;1.70;;
14167;SDS011;7163;50.626;12.922;2023-11-19T00:33:31;1.90;;;1.80;;
14167;SDS011;7163;50.626;12.922;2023-11-19T00:38:31;1.80;;;1.70;;
14167;SDS011;7163;50.626;12.922;2023-11-19T00:43:31;1.90;;;1.80;;
14167;SDS011;7163;50.626;12.922;2023-11-19T00:48:32;1.87;;;1.77;;
14167;SDS011;7163;50.626;12.922;2023-11-19T00:53:32;2.00;;;1.90;;
14167;SDS011;7163;50.626;12.922;2023-11-19T00:58:33;1.90;;;1.80;;
14167;SDS011;7163;50.626;12.922;2023-11-19T01:03:34;2.15;;;2.00;;
14167;SDS011;7163;50.626;12.922;2023-11-19T01:08:34;2.03;;;1.93;;
14167;SDS011;7163;50.626;12.922;2023-11-19T01:13:37;1.93;;;1.83;;
14167;SDS011;7163;50.626;12.922;2023-11-19T01:18:37;2.20;;;2.10;;
14167;SDS011;7163;50.626;12.922;2023-11-19T01:23:38;3.23;;;2.00;;
14167;SDS011;7163;50.626;12.922;2023-11-19T01:28:39;2.30;;;2.10;;
14167;SDS011;7163;50.626;12.922;2023-11-19T01:33:47;2.23;;;2.13;;
14167;SDS011;7163;50.626;12.922;2023-11-19T01:38:47;2.40;;;2.20;;
14167;SDS011;7163;50.626;12.922;2023-11-19T01:43:47;2.55;;;2.38;;
14167;SDS011;7163;50.626;12.922;2023-11-19T01:48:48;2.50;;;2.30;;
14167;SDS011;7163;50.626;12.922;2023-11-19T01:53:48;2.67;;;2.47;;
14167;SDS011;7163;50.626;12.922;2023-11-19T01:58:49;2.60;;;2.40;;
14167;SDS011;7163;50.626;12.922;2023-11-19T02:03:50;2.43;;;2.23;;
14167;SDS011;7163;50.626;12.922;2023-11-19T02:14:03;4.43;;;2.37;;
14167;SDS011;7163;50.626;12.922;2023-11-19T02:19:04;2.17;;;2.07;;
14167;SDS011;7163;50.626;12.922;2023-11-19T02:24:06;2.77;;;2.57;;
14167;SDS011;7163;50.626;12.922;2023-11-19T02:29:08;3.30;;;2.80;;
14167;SDS011;7163;50.626;12.922;2023-11-19T02:34:10;2.87;;;2.60;;
14167;SDS011;7163;50.626;12.922;2023-11-19T02:39:10;3.47;;;3.00;;
14167;SDS011;7163;50.626;12.922;2023-11-19T02:44:12;4.17;;;2.80;;
14167;SDS011;7163;50.626;12.922;2023-11-19T02:49:14;4.33;;;2.60;;
14167;SDS011;7163;50.626;12.922;2023-11-19T02:54:15;3.63;;;2.40;;
14167;SDS011;7163;50.626;12.922;2023-11-19T02:59:15;2.30;;;2.10;;
14167;SDS011;7163;50.626;12.922;2023-11-19T03:04:27;2.10;;;2.00;;
14167;SDS011;7163;50.626;12.922;2023-11-19T03:09:28;2.20;;;2.00;;
14167;SDS011;7163;50.626;12.922;2023-11-19T03:14:29;2.50;;;1.83;;
14167;SDS011;7163;50.626;12.922;2023-11-19T03:19:29;3.67;;;1.97;;
14167;SDS011;7163;50.626;12.922;2023-11-19T04:05:50;1.50;;;1.50;;
14167;SDS011;7163;50.626;12.922;2023-11-19T04:42:25;1.47;;;1.47;;
14167;SDS011;7163;50.626;12.922;2023-11-19T04:47:25;1.77;;;1.67;;
14167;SDS011;7163;50.626;12.922;2023-11-19T04:52:26;1.80;;;1.70;;
14167;SDS011;7163;50.626;12.922;2023-11-19T04:57:26;1.70;;;1.60;;
14167;SDS011;7163;50.626;12.922;2023-11-19T05:02:27;1.70;;;1.60;;
14167;SDS011;7163;50.626;12.922;2023-11-19T05:07:28;1.80;;;1.70;;
14167;SDS011;7163;50.626;12.922;2023-11-19T05:12:28;1.70;;;1.60;;
14167;SDS011;7163;50.626;12.922;2023-11-19T05:17:28;2.00;;;1.90;;
14167;SDS011;7163;50.626;12.922;2023-11-19T05:22:28;2.22;;;1.90;;
14167;SDS011;7163;50.626;12.922;2023-11-19T05:27:29;1.70;;;1.60;;
14167;SDS011;7163;50.626;12.922;2023-11-19T05:43:00;1.70;;;1.60;;
14167;SDS011;7163;50.626;12.922;2023-11-19T05:48:00;1.90;;;1.80;;
14167;SDS011;7163;50.626;12.922;2023-11-19T05:53:00;1.35;;;1.35;;
14167;SDS011;7163;50.626;12.922;2023-11-19T05:58:01;1.70;;;1.60;;
14167;SDS011;7163;50.626;12.922;2023-11-19T06:03:02;2.03;;;1.50;;
14167;SDS011;7163;50.626;12.922;2023-11-19T06:08:02;1.93;;;1.70;;
14167;SDS011;7163;50.626;12.922;2023-11-19T06:13:02;1.60;;;1.50;;
14167;SDS011;7163;50.626;12.922;2023-11-19T06:18:05;1.60;;;1.50;;
14167;SDS011;7163;50.626;12.922;2023-11-19T06:23:05;2.60;;;1.40;;
14167;SDS011;7163;50.626;12.922;2023-11-19T06:28:06;1.77;;;1.67;;
14167;SDS011;7163;50.626;12.922;2023-11-19T06:33:07;1.60;;;1.50;;
14167;SDS011;7163;50.626;12.922;2023-11-19T06:38:07;1.40;;;1.40;;
14167;SDS011;7163;50.626;12.922;2023-11-19T06:53:28;2.27;;;2.07;;
14167;SDS011;7163;50.626;12.922;2023-11-19T06:58:29;2.30;;;1.60;;
14167;SDS011;7163;50.626;12.922;2023-11-19T07:03:29;1.70;;;1.60;;
14167;SDS011;7163;50.626;12.922;2023-11-19T07:08:30;2.60;;;2.40;;
14167;SDS011;7163;50.626;12.922;2023-11-19T07:13:30;1.80;;;1.70;;
14167;SDS011;7163;50.626;12.922;2023-11-19T07:18:31;1.60;;;1.50;;
14167;SDS011;7163;50.626;12.922;2023-11-19T07:23:31;3.17;;;1.80;;
14167;SDS011;7163;50.626;12.922;2023-11-19T07:28:33;1.70;;;1.60;;
14167;SDS011;7163;50.626;12.922;2023-11-19T07:33:33;2.43;;;1.40;;
14167;SDS011;7163;50.626;12.922;2023-11-19T07:38:34;6.03;;;2.83;;
14167;SDS011;7163;50.626;12.922;2023-11-19T07:43:34;1.70;;;1.60;;
14167;SDS011;7163;50.626;12.922;2023-11-19T07:48:34;2.40;;;2.10;;
14167;SDS011;7163;50.626;12.922;2023-11-19T07:53:35;3.87;;;1.97;;
14167;SDS011;7163;50.626;12.922;2023-11-19T07:58:37;3.50;;;1.80;;
14167;SDS011;7163;50.626;12.922;2023-11-19T08:03:37;1.77;;;1.67;;
14167;SDS011;7163;50.626;12.922;2023-11-19T08:08:38;5.77;;;3.17;;
14167;SDS011;7163;50.626;12.922;2023-11-19T08:13:38;5.07;;;3.10;;
14167;SDS011;7163;50.626;12.922;2023-11-19T08:18:40;2.47;;;1.77;;
14167;SDS011;7163;50.626;12.922;2023-11-19T08:23:41;3.17;;;1.70;;
14167;SDS011;7163;50.626;12.922;2023-11-19T08:28:42;9.07;;;4.77;;
14167;SDS011;7163;50.626;12.922;2023-11-19T08:33:42;4.90;;;3.10;;
14167;SDS011;7163;50.626;12.922;2023-11-19T08:38:43;4.80;;;2.80;;
14167;SDS011;7163;50.626;12.922;2023-11-19T08:43:43;5.53;;;2.87;;
14167;SDS011;7163;50.626;12.922;2023-11-19T08:48:43;13.10;;;6.63;;
14167;SDS011;7163;50.626;12.922;2023-11-19T08:53:43;4.20;;;2.23;;
14167;SDS011;7163;50.626;12.922;2023-11-19T08:58:43;6.10;;;2.60;;
14167;SDS011;7163;50.626;12.922;2023-11-19T09:03:44;21.97;;;19.67;;
14167;SDS011;7163;50.626;12.922;2023-11-19T09:08:44;10.00;;;7.13;;
14167;SDS011;7163;50.626;12.922;2023-11-19T09:18:54;6.33;;;4.57;;
14167;SDS011;7163;50.626;12.922;2023-11-19T09:23:55;7.40;;;4.13;;
14167;SDS011;7163;50.626;12.922;2023-11-19T09:28:55;9.90;;;4.77;;
14167;SDS011;7163;50.626;12.922;2023-11-19T09:33:56;3.23;;;1.70;;
14167;SDS011;7163;50.626;12.922;2023-11-19T09:38:56;5.93;;;1.70;;
14167;SDS011;7163;50.626;12.922;2023-11-19T09:43:56;2.97;;;2.00;;
14167;SDS011;7163;50.626;12.922;2023-11-19T09:49:00;3.30;;;2.00;;
14167;SDS011;7163;50.626;12.922;2023-11-19T09:54:11;7.83;;;2.00;;
14167;SDS011;7163;50.626;12.922;2023-11-19T09:59:16;5.13;;;2.10;;
14167;SDS011;7163;50.626;12.922;2023-11-19T10:09:31;4.67;;;2.37;;
14167;SDS011;7163;50.626;12.922;2023-11-19T10:14:32;4.00;;;2.17;;
14167;SDS011;7163;50.626;12.922;2023-11-19T10:19:36;6.73;;;2.33;;
14167;SDS011;7163;50.626;12.922;2023-11-19T10:24:39;6.13;;;2.07;;
14167;SDS011;7163;50.626;12.922;2023-11-19T10:29:44;6.00;;;2.20;;
14167;SDS011;7163;50.626;12.922;2023-11-19T10:34:45;4.93;;;2.70;;
14167;SDS011;7163;50.626;12.922;2023-11-19T10:39:52;8.67;;;2.87;;
14167;SDS011;7163;50.626;12.922;2023-11-19T10:44:55;5.10;;;2.00;;
14167;SDS011;7163;50.626;12.922;2023-11-19T10:49:56;7.13;;;3.50;;
14167;SDS011;7163;50.626;12.922;2023-11-19T10:54:56;5.50;;;2.10;;
14167;SDS011;7163;50.626;12.922;2023-11-19T11:05:07;8.00;;;3.53;;
14167;SDS011;7163;50.626;12.922;2023-11-19T11:10:15;12.37;;;5.07;;
14167;SDS011;7163;50.626;12.922;2023-11-19T11:15:18;8.83;;;3.07;;
14167;SDS011;7163;50.626;12.922;2023-11-19T11:20:19;8.17;;;4.20;;
14167;SDS011;7163;50.626;12.922;2023-11-19T11:25:34;15.97;;;3.83;;
14167;SDS011;7163;50.626;12.922;2023-11-19T11:36:22;7.53;;;3.30;;
14167;SDS011;7163;50.626;12.922;2023-11-19T11:41:23;8.33;;;3.13;;
14167;SDS011;7163;50.626;12.922;2023-11-19T11:57:06;11.90;;;3.87;;
14167;SDS011;7163;50.626;12.922;2023-11-19T12:02:11;7.27;;;2.90;;
14167;SDS011;7163;50.626;12.922;2023-11-19T12:07:19;6.50;;;3.10;;
14167;SDS011;7163;50.626;12.922;2023-11-19T12:12:23;9.23;;;2.25;;
14167;SDS011;7163;50.626;12.922;2023-11-19T12:17:36;9.32;;;3.15;;
14167;SDS011;7163;50.626;12.922;2023-11-19T12:22:40;6.65;;;2.45;;
14167;SDS011;7163;50.626;12.922;2023-11-19T12:27:41;6.88;;;2.50;;
14167;SDS011;7163;50.626;12.922;2023-11-19T12:32:42;5.80;;;2.33;;
14167;SDS011;7163;50.626;12.922;2023-11-19T12:37:47;9.13;;;2.50;;
14167;SDS011;7163;50.626;12.922;2023-11-19T12:42:48;5.10;;;2.23;;
14167;SDS011;7163;50.626;12.922;2023-11-19T12:47:49;7.30;;;2.20;;
14167;SDS011;7163;50.626;12.922;2023-11-19T12:52:56;6.00;;;3.30;;
14167;SDS011;7163;50.626;12.922;2023-11-19T12:57:59;11.77;;;3.13;;
14167;SDS011;7163;50.626;12.922;2023-11-19T13:18:30;12.63;;;3.33;;
14167;SDS011;7163;50.626;12.922;2023-11-19T13:23:30;14.37;;;3.50;;
14167;SDS011;7163;50.626;12.922;2023-11-19T13:28:32;13.40;;;3.43;;
14167;SDS011;7163;50.626;12.922;2023-11-19T13:38:42;9.60;;;3.67;;
14167;SDS011;7163;50.626;12.922;2023-11-19T13:43:45;11.73;;;3.80;;
14167;SDS011;7163;50.626;12.922;2023-11-19T13:48:46;13.80;;;3.50;;
14167;SDS011;7163;50.626;12.922;2023-11-19T13:53:46;10.43;;;4.00;;
14167;SDS011;7163;50.626;12.922;2023-11-19T13:58:46;16.60;;;5.23;;
14167;SDS011;7163;50.626;12.922;2023-11-19T14:03:46;11.50;;;5.17;;
14167;SDS011;7163;50.626;12.922;2023-11-19T14:08:47;18.80;;;7.07;;
14167;SDS011;7163;50.626;12.922;2023-11-19T14:13:47;14.27;;;4.30;;
14167;SDS011;7163;50.626;12.922;2023-11-19T14:18:49;18.53;;;4.83;;
14167;SDS011;7163;50.626;12.922;2023-11-19T14:23:49;13.37;;;4.80;;
14167;SDS011;7163;50.626;12.922;2023-11-19T14:28:50;16.20;;;7.77;;
14167;SDS011;7163;50.626;12.922;2023-11-19T14:33:50;15.77;;;7.20;;
14167;SDS011;7163;50.626;12.922;2023-11-19T14:38:50;14.93;;;6.23;;
14167;SDS011;7163;50.626;12.922;2023-11-19T14:43:51;18.73;;;5.10;;
14167;SDS011;7163;50.626;12.922;2023-11-19T14:48:51;15.85;;;6.07;;
14167;SDS011;7163;50.626;12.922;2023-11-19T14:53:51;14.07;;;3.43;;
14167;SDS011;7163;50.626;12.922;2023-11-19T14:58:52;11.13;;;4.70;;
14167;SDS011;7163;50.626;12.922;2023-11-19T15:03:52;21.90;;;7.40;;
14167;SDS011;7163;50.626;12.922;2023-11-19T15:08:53;13.80;;;5.07;;
14167;SDS011;7163;50.626;12.922;2023-11-19T15:13:53;17.20;;;5.87;;
14167;SDS011;7163;50.626;12.922;2023-11-19T15:18:54;12.80;;;5.33;;
14167;SDS011;7163;50.626;12.922;2023-11-19T15:23:57;10.10;;;4.87;;
14167;SDS011;7163;50.626;12.922;2023-11-19T15:28:57;14.07;;;4.07;;
14167;SDS011;7163;50.626;12.922;2023-11-19T15:33:58;13.37;;;5.10;;
14167;SDS011;7163;50.626;12.922;2023-11-19T15:38:59;16.00;;;5.17;;
14167;SDS011;7163;50.626;12.922;2023-11-19T15:43:59;15.77;;;4.80;;
14167;SDS011;7163;50.626;12.922;2023-11-19T15:49:00;20.87;;;7.33;;
14167;SDS011;7163;50.626;12.922;2023-11-19T15:54:00;16.57;;;9.20;;
14167;SDS011;7163;50.626;12.922;2023-11-19T15:59:00;21.23;;;6.17;;
14167;SDS011;7163;50.626;12.922;2023-11-19T16:04:01;16.67;;;4.60;;
14167;SDS011;7163;50.626;12.922;2023-11-19T16:09:01;16.07;;;4.30;;
14167;SDS011;7163;50.626;12.922;2023-11-19T16:14:01;17.97;;;4.37;;
14167;SDS011;7163;50.626;12.922;2023-11-19T16:19:02;17.00;;;4.87;;
14167;SDS011;7163;50.626;12.922;2023-11-19T16:24:04;17.73;;;5.00;;
14167;SDS011;7163;50.626;12.922;2023-11-19T16:29:05;19.13;;;5.20;;
14167;SDS011;7163;50.626;12.922;2023-11-19T16:34:05;16.93;;;5.07;;
14167;SDS011;7163;50.626;12.922;2023-11-19T16:39:05;21.67;;;6.53;;
14167;SDS011;7163;50.626;12.922;2023-11-19T16:44:08;24.80;;;7.00;;
14167;SDS011;7163;50.626;12.922;2023-11-19T16:49:09;22.13;;;5.80;;
14167;SDS011;7163;50.626;12.922;2023-11-19T16:54:09;19.13;;;4.57;;
14167;SDS011;7163;50.626;12.922;2023-11-19T16:59:09;24.40;;;5.37;;
14167;SDS011;7163;50.626;12.922;2023-11-19T17:04:10;19.13;;;4.50;;
14167;SDS011;7163;50.626;12.922;2023-11-19T17:09:10;14.70;;;5.10;;
14167;SDS011;7163;50.626;12.922;2023-11-19T17:14:12;17.00;;;4.00;;
14167;SDS011;7163;50.626;12.922;2023-11-19T17:19:13;21.50;;;5.23;;
14167;SDS011;7163;50.626;12.922;2023-11-19T17:24:13;29.83;;;11.73;;
14167;SDS011;7163;50.626;12.922;2023-11-19T17:29:13;39.77;;;16.70;;
14167;SDS011;7163;50.626;12.922;2023-11-19T18:00:44;16.43;;;6.17;;
14167;SDS011;7163;50.626;12.922;2023-11-19T18:05:44;16.37;;;4.60;;
14167;SDS011;7163;50.626;12.922;2023-11-19T18:10:48;24.30;;;6.57;;
14167;SDS011;7163;50.626;12.922;2023-11-19T18:15:48;30.57;;;9.73;;
14167;SDS011;7163;50.626;12.922;2023-11-19T18:20:48;36.67;;;12.50;;
14167;SDS011;7163;50.626;12.922;2023-11-19T18:25:49;20.27;;;6.53;;
14167;SDS011;7163;50.626;12.922;2023-11-19T18:30:50;23.93;;;7.17;;
14167;SDS011;7163;50.626;12.922;2023-11-19T18:35:50;17.50;;;4.97;;
14167;SDS011;7163;50.626;12.922;2023-11-19T18:40:51;19.40;;;7.37;;
14167;SDS011;7163;50.626;12.922;2023-11-19T18:45:51;18.13;;;6.25;;
14167;SDS011;7163;50.626;12.922;2023-11-19T18:50:52;21.67;;;5.60;;
14167;SDS011;7163;50.626;12.922;2023-11-19T18:55:53;13.07;;;4.27;;
14167;SDS011;7163;50.626;12.922;2023-11-19T19:00:53;18.53;;;4.77;;
14167;SDS011;7163;50.626;12.922;2023-11-19T19:05:54;14.03;;;4.17;;
14167;SDS011;7163;50.626;12.922;2023-11-19T19:10:55;13.53;;;3.60;;
14167;SDS011;7163;50.626;12.922;2023-11-19T19:15:55;10.50;;;3.77;;
14167;SDS011;7163;50.626;12.922;2023-11-19T19:20:55;18.43;;;4.07;;
14167;SDS011;7163;50.626;12.922;2023-11-19T19:25:56;17.73;;;3.80;;
14167;SDS011;7163;50.626;12.922;2023-11-19T19:30:57;12.90;;;3.80;;
14167;SDS011;7163;50.626;12.922;2023-11-19T19:35:57;12.70;;;3.67;;
14167;SDS011;7163;50.626;12.922;2023-11-19T19:40:58;9.60;;;3.00;;
14167;SDS011;7163;50.626;12.922;2023-11-19T19:46:04;8.53;;;3.93;;
14167;SDS011;7163;50.626;12.922;2023-11-19T19:51:04;14.03;;;3.20;;
14167;SDS011;7163;50.626;12.922;2023-11-19T19:56:07;10.63;;;3.47;;
14167;SDS011;7163;50.626;12.922;2023-11-19T20:01:07;12.40;;;3.77;;
14167;SDS011;7163;50.626;12.922;2023-11-19T20:06:08;13.00;;;3.70;;
14167;SDS011;7163;50.626;12.922;2023-11-19T20:11:11;10.00;;;3.20;;
14167;SDS011;7163;50.626;12.922;2023-11-19T20:21:22;15.73;;;3.97;;
14167;SDS011;7163;50.626;12.922;2023-11-19T20:26:23;16.57;;;4.00;;
14167;SDS011;7163;50.626;12.922;2023-11-19T20:31:23;15.80;;;3.90;;
14167;SDS011;7163;50.626;12.922;2023-11-19T20:36:23;11.80;;;3.77;;
14167;SDS011;7163;50.626;12.922;2023-11-19T20:41:24;16.50;;;4.17;;
14167;SDS011;7163;50.626;12.922;2023-11-19T20:46:24;16.67;;;4.27;;
14167;SDS011;7163;50.626;12.922;2023-11-19T20:51:25;16.03;;;4.17;;
14167;SDS011;7163;50.626;12.922;2023-11-19T20:56:26;10.20;;;3.80;;
14167;SDS011;7163;50.626;12.922;2023-11-19T21:01:26;11.53;;;3.93;;
14167;SDS011;7163;50.626;12.922;2023-11-19T21:06:27;17.03;;;4.10;;
14167;SDS011;7163;50.626;12.922;2023-11-19T21:11:27;14.43;;;3.80;;
14167;SDS011;7163;50.626;12.922;2023-11-19T21:16:27;11.47;;;3.97;;
14167;SDS011;7163;50.626;12.922;2023-11-19T21:21:29;20.97;;;3.70;;
14167;SDS011;7163;50.626;12.922;2023-11-19T21:26:29;12.83;;;4.10;;
14167;SDS011;7163;50.626;12.922;2023-11-19T21:31:29;17.00;;;4.43;;
14167;SDS011;7163;50.626;12.922;2023-11-19T21:36:29;23.13;;;3.67;;
14167;SDS011;7163;50.626;12.922;2023-11-19T21:41:30;14.10;;;3.23;;
14167;SDS011;7163;50.626;12.922;2023-11-19T21:46:30;14.20;;;3.40;;
14167;SDS011;7163;50.626;12.922;2023-11-19T21:51:30;20.00;;;4.10;;
14167;SDS011;7163;50.626;12.922;2023-11-19T21:56:30;17.73;;;4.13;;
14167;SDS011;7163;50.626;12.922;2023-11-19T22:01:31;16.97;;;3.70;;
14167;SDS011;7163;50.626;12.922;2023-11-19T22:06:40;11.03;;;3.30;;
14167;SDS011;7163;50.626;12.922;2023-11-19T22:11:40;16.93;;;4.00;;
14167;SDS011;7163;50.626;12.922;2023-11-19T22:16:41;11.57;;;4.00;;
14167;SDS011;7163;50.626;12.922;2023-11-19T22:21:42;19.30;;;4.80;;
14167;SDS011;7163;50.626;12.922;2023-11-19T22:26:42;17.43;;;4.40;;
14167;SDS011;7163;50.626;12.922;2023-11-19T22:31:43;17.63;;;3.47;;
14167;SDS011;7163;50.626;12.922;2023-11-19T22:41:53;16.00;;;3.60;;
14167;SDS011;7163;50.626;12.922;2023-11-19T22:46:54;11.07;;;3.95;;
